Time;durP1;ratioP1;P1;durP2;ratioP2;P2;SDS_P1;SDS_P2;PMS_P1;PMS_P2;Temp;Humidity;BMP_temperature;BMP_pressure;BME280_temperature;BME280_humidity;BME280_pressure;Samples;Min_cycle;Max_cycle;Signal;HPM_P1;HPM_P2
2022/01/11 00:01:50;;;;;;;43.27;22.77;;;;;;;-0.57;77.16;102206.58;1775654;80;21521;-72
2022/01/11 00:04:18;;;;;;;37.13;20.77;;;;;;;-0.63;77.03;102210.64;1781504;80;21062;-72
2022/01/11 00:06:50;;;;;;;38.20;20.17;;;;;;;-0.66;77.08;102215.27;1762238;80;21122;-72
2022/01/11 00:09:33;;;;;;;40.47;21.80;;;;;;;-0.69;77.17;102217.72;1750317;82;21027;-72
2022/01/11 00:11:51;;;;;;;42.30;22.03;;;;;;;-0.70;77.22;102218.52;1776897;80;21254;-72
2022/01/11 00:14:18;;;;;;;44.30;21.00;;;;;;;-0.75;76.97;102219.66;1781555;80;21412;-72
2022/01/11 00:16:46;;;;;;;42.70;22.23;;;;;;;-0.83;77.04;102220.15;1754283;80;20999;-72
2022/01/11 00:19:14;;;;;;;45.27;21.90;;;;;;;-0.85;77.03;102227.83;1750906;81;22098;-72
2022/01/11 00:21:47;;;;;;;41.80;21.67;;;;;;;-0.92;77.12;102230.56;1769660;80;21525;-72
2022/01/11 00:24:29;;;;;;;41.47;21.30;;;;;;;-0.97;77.08;102228.23;1781641;80;20972;-72
2022/01/11 00:27:03;;;;;;;40.23;21.10;;;;;;;-1.05;77.08;102236.44;1753756;80;21003;-72
2022/01/11 00:29:34;;;;;;;39.57;20.43;;;;;;;-1.10;77.00;102238.86;1750799;82;21124;-72
2022/01/11 00:32:08;;;;;;;38.77;21.23;;;;;;;-1.19;77.22;102243.23;1752557;80;21109;-72
2022/01/11 00:34:50;;;;;;;43.68;21.12;;;;;;;-1.20;77.22;102249.59;1759125;80;21003;-72
2022/01/11 00:37:20;;;;;;;40.30;20.07;;;;;;;-1.28;77.24;102245.82;1752047;80;20992;-72
2022/01/11 00:39:52;;;;;;;43.55;21.87;;;;;;;-1.30;77.36;102252.20;1750729;82;20968;-72
2022/01/11 00:42:22;;;;;;;40.87;20.87;;;;;;;-1.34;77.41;102263.17;1780159;80;20960;-72
2022/01/11 00:44:50;;;;;;;43.77;21.13;;;;;;;-1.37;77.35;102264.33;1776892;80;22262;-72
2022/01/11 00:47:17;;;;;;;44.57;21.83;;;;;;;-1.47;77.33;102263.46;1772318;80;21000;-72
2022/01/11 00:49:45;;;;;;;45.37;22.40;;;;;;;-1.50;77.28;102265.91;1781262;80;21492;-72
2022/01/11 00:52:12;;;;;;;43.43;22.80;;;;;;;-1.61;77.32;102265.07;1758162;80;20987;-72
2022/01/11 00:54:40;;;;;;;39.50;20.77;;;;;;;-1.66;77.38;102266.98;1750863;80;21007;-72
2022/01/11 00:57:07;;;;;;;38.43;20.07;;;;;;;-1.72;77.40;102275.69;1752938;80;21083;-72
2022/01/11 00:59:34;;;;;;;45.80;22.30;;;;;;;-1.76;77.46;102279.83;1750461;82;21010;-72
2022/01/11 01:02:02;;;;;;;47.93;22.10;;;;;;;-1.82;77.42;102280.85;1769585;80;21477;-72
2022/01/11 01:04:29;;;;;;;44.43;22.10;;;;;;;-1.88;77.60;102277.61;1778046;80;20980;-72
2022/01/11 01:06:58;;;;;;;42.47;22.00;;;;;;;-1.92;77.62;102279.55;1750934;82;20972;-72
2022/01/11 01:09:31;;;;;;;46.60;23.20;;;;;;;-1.95;77.71;102277.27;1752430;80;21489;-72
2022/01/11 01:11:55;;;;;;;45.80;21.77;;;;;;;-1.99;77.68;102283.09;1752568;80;21022;-72
2022/01/11 01:14:22;;;;;;;42.90;21.97;;;;;;;-2.09;77.75;102283.07;1781366;80;21036;-72
2022/01/11 01:16:50;;;;;;;41.67;20.57;;;;;;;-2.12;77.73;102284.22;1779563;80;21035;-72
2022/01/11 01:19:26;;;;;;;43.83;21.13;;;;;;;-2.20;77.66;102286.44;1772618;80;21024;-72
2022/01/11 01:21:51;;;;;;;40.90;21.60;;;;;;;-2.25;77.47;102285.34;1780916;80;21170;-72
2022/01/11 01:24:18;;;;;;;44.23;22.00;;;;;;;-2.36;77.60;102283.56;1751343;80;20984;-72
2022/01/11 01:26:45;;;;;;;41.70;21.07;;;;;;;-2.35;77.64;102286.63;1773414;80;20911;-72
2022/01/11 01:29:12;;;;;;;43.53;21.63;;;;;;;-2.41;77.71;102293.16;1750616;82;20992;-73
2022/01/11 01:31:39;;;;;;;45.60;23.43;;;;;;;-2.41;77.72;102280.31;1764646;80;21527;-73
2022/01/11 01:34:06;;;;;;;39.20;20.37;;;;;;;-2.47;77.82;102280.91;1781420;80;21032;-72
2022/01/11 01:36:34;;;;;;;39.63;22.63;;;;;;;-2.50;77.71;102286.78;1780525;80;20960;-73
2022/01/11 01:39:02;;;;;;;46.50;21.40;;;;;;;-2.55;77.76;102287.37;1761426;80;20957;-73
2022/01/11 01:41:29;;;;;;;45.87;23.20;;;;;;;-2.58;77.79;102292.38;1750870;81;21003;-72
2022/01/11 01:44:02;;;;;;;47.47;22.97;;;;;;;-2.62;77.83;102290.08;1750673;81;21026;-72
2022/01/11 01:46:30;;;;;;;39.83;21.43;;;;;;;-2.65;77.80;102290.34;1752982;80;21072;-72
2022/01/11 01:49:00;;;;;;;44.17;21.07;;;;;;;-2.71;77.74;102289.24;1750506;81;21481;-72
2022/01/11 01:51:28;;;;;;;44.87;21.43;;;;;;;-2.74;77.67;102295.92;1754492;80;21641;-72
2022/01/11 01:53:56;;;;;;;44.77;22.23;;;;;;;-2.81;77.72;102299.00;1756532;80;21564;-72
2022/01/11 01:59:25;;;;;;;43.23;21.20;;;;;;;-2.93;77.79;102295.45;1639299;87;21075;-77
2022/01/11 02:01:52;;;;;;;46.70;21.90;;;;;;;-2.96;77.86;102298.73;1640758;87;21035;-73
2022/01/11 02:04:20;;;;;;;42.43;20.70;;;;;;;-3.03;77.81;102300.52;1640932;87;21003;-76
2022/01/11 02:06:48;;;;;;;42.20;20.67;;;;;;;-3.07;77.73;102302.88;1640679;87;21071;-72
2022/01/11 02:09:15;;;;;;;42.40;21.33;;;;;;;-3.15;77.69;102303.37;1640793;87;21674;-72
2022/01/11 02:11:43;;;;;;;48.87;22.40;;;;;;;-3.20;77.68;102303.53;1640794;87;21140;-73
2022/01/11 02:14:10;;;;;;;39.30;22.27;;;;;;;-3.24;77.84;102306.77;1640738;87;21535;-72
2022/01/11 02:16:37;;;;;;;43.73;21.37;;;;;;;-3.28;77.80;102309.09;1640647;87;21048;-72
2022/01/11 02:19:05;;;;;;;39.10;21.10;;;;;;;-3.33;77.92;102302.84;1640775;86;21084;-72
2022/01/11 02:21:32;;;;;;;43.23;22.50;;;;;;;-3.36;77.92;102300.60;1640657;87;21354;-72
2022/01/11 02:24:00;;;;;;;46.83;21.93;;;;;;;-3.40;78.05;102305.52;1640703;87;21298;-72
2022/01/11 02:26:29;;;;;;;48.00;22.57;;;;;;;-3.42;78.05;102307.99;1640786;87;21016;-72
2022/01/11 02:28:56;;;;;;;45.47;22.13;;;;;;;-3.47;77.98;102308.56;1640875;87;21052;-72
2022/01/11 02:31:23;;;;;;;43.67;22.17;;;;;;;-3.51;78.07;102310.51;1640688;87;21075;-72
2022/01/11 02:33:58;;;;;;;44.47;21.80;;;;;;;-3.55;78.11;102312.02;1641222;86;21059;-72
2022/01/11 02:36:37;;;;;;;53.20;23.32;;;;;;;-3.57;78.14;102319.14;1641127;85;21572;-73
2022/01/11 02:39:05;;;;;;;48.70;24.03;;;;;;;-3.60;78.15;102317.33;1641465;87;21072;-72
2022/01/11 02:41:34;;;;;;;48.43;24.23;;;;;;;-3.64;78.34;102316.27;1641060;87;21058;-72
2022/01/11 02:44:04;;;;;;;45.00;22.97;;;;;;;-3.63;78.40;102324.83;1641471;86;21072;-72
2022/01/11 02:46:31;;;;;;;47.43;22.60;;;;;;;-3.66;78.36;102323.02;1640638;87;21066;-72
2022/01/11 02:48:59;;;;;;;47.03;23.33;;;;;;;-3.68;78.28;102323.74;1641115;87;21076;-72
2022/01/11 02:51:28;;;;;;;47.53;21.73;;;;;;;-3.72;78.16;102318.84;1640932;86;21075;-73
2022/01/11 02:53:59;;;;;;;45.40;22.47;;;;;;;-3.79;78.13;102324.46;1641008;86;21091;-72
2022/01/11 02:56:26;;;;;;;46.77;22.10;;;;;;;-3.84;77.95;102320.77;1640676;87;21004;-77
2022/01/11 02:58:53;;;;;;;45.93;23.23;;;;;;;-3.93;77.93;102325.42;1641139;87;21008;-72
2022/01/11 03:01:20;;;;;;;48.57;23.27;;;;;;;-3.97;77.86;102331.17;1640891;87;21125;-72
2022/01/11 03:03:48;;;;;;;50.43;23.57;;;;;;;-4.02;78.01;102331.32;1640740;87;21007;-72
2022/01/11 03:06:16;;;;;;;51.43;23.37;;;;;;;-4.06;77.95;102337.56;1641061;87;21091;-72
2022/01/11 03:08:46;;;;;;;45.20;22.03;;;;;;;-4.11;78.05;102340.27;1640866;86;21052;-72
2022/01/11 03:11:21;;;;;;;49.20;22.00;;;;;;;-4.13;77.96;102341.89;1640919;87;21059;-72
2022/01/11 03:13:50;;;;;;;48.87;23.05;;;;;;;-4.19;78.00;102340.66;1641152;87;21111;-72
2022/01/11 03:16:18;;;;;;;49.83;23.27;;;;;;;-4.19;78.05;102344.09;1640953;87;21016;-71
2022/01/11 03:18:47;;;;;;;51.17;24.63;;;;;;;-4.23;78.13;102342.19;1640675;87;21012;-72
2022/01/11 03:21:15;;;;;;;53.13;23.77;;;;;;;-4.25;78.15;102346.33;1641237;87;21016;-72
2022/01/11 03:23:42;;;;;;;50.77;25.17;;;;;;;-4.29;78.02;102342.73;1640925;87;21053;-72
2022/01/11 03:26:10;;;;;;;47.87;23.27;;;;;;;-4.30;78.05;102351.19;1641221;87;21768;-71
2022/01/11 03:28:38;;;;;;;51.10;25.07;;;;;;;-4.36;78.13;102353.83;1640853;87;21520;-71
2022/01/11 03:31:05;;;;;;;54.70;25.13;;;;;;;-4.35;78.10;102350.09;1641140;87;21036;-71
2022/01/11 03:33:35;;;;;;;56.83;26.57;;;;;;;-4.39;78.16;102362.63;1641317;86;21524;-72
2022/01/11 03:36:03;;;;;;;49.57;23.87;;;;;;;-4.39;78.06;102360.94;1640995;86;21056;-73
2022/01/11 03:38:33;;;;;;;54.63;25.17;;;;;;;-4.44;78.05;102367.47;1642852;86;21967;-72
2022/01/11 03:41:01;;;;;;;;;;;;;;;-4.45;77.95;102372.53;1642564;87;21051;-72
2022/01/11 03:43:29;;;;;;;51.37;23.77;;;;;;;-4.51;78.08;102373.06;1621139;87;20183;-72
2022/01/11 03:45:57;;;;;;;57.67;26.57;;;;;;;-4.50;78.20;102378.25;1613724;89;21104;-72
2022/01/11 03:48:24;;;;;;;54.27;25.93;;;;;;;-4.53;78.19;102374.25;1613908;89;21636;-71
2022/01/11 03:50:53;;;;;;;48.87;24.03;;;;;;;-4.54;78.15;102375.05;1613646;89;21508;-73
2022/01/11 03:53:31;;;;;;;53.98;25.72;;;;;;;-4.57;78.18;102372.33;1613260;89;21568;-72
2022/01/11 03:58:26;;;;;;;49.07;24.43;;;;;;;-4.60;78.23;102372.53;1613851;89;21012;-77
2022/01/11 04:00:54;;;;;;;59.80;29.23;;;;;;;-4.62;78.15;102367.34;1613701;89;21074;-72
2022/01/11 04:03:22;;;;;;;56.40;27.57;;;;;;;-4.63;78.30;102367.24;1614053;89;21312;-72
2022/01/11 04:05:50;;;;;;;59.83;27.03;;;;;;;-4.63;78.21;102369.40;1613891;89;21388;-72
2022/01/11 04:08:17;;;;;;;51.07;26.60;;;;;;;-4.67;78.19;102367.48;1613780;89;21068;-72
2022/01/11 04:10:44;;;;;;;54.00;27.27;;;;;;;-4.67;78.20;102367.48;1613775;89;21518;-72
2022/01/11 04:13:12;;;;;;;61.40;27.73;;;;;;;-4.71;78.16;102363.88;1613935;89;21544;-72
2022/01/11 04:15:41;;;;;;;55.27;28.33;;;;;;;-4.71;78.04;102366.84;1612933;89;21947;-72
2022/01/11 04:18:09;;;;;;;53.27;24.63;;;;;;;-4.78;78.04;102365.59;1613884;89;21080;-72
2022/01/11 04:20:37;;;;;;;53.87;26.60;;;;;;;-4.80;78.00;102364.61;1613780;89;21040;-72
2022/01/11 04:23:07;;;;;;;58.73;26.33;;;;;;;-4.84;78.06;102361.81;1613788;89;21047;-73
2022/01/11 04:25:33;;;;;;;59.60;29.07;;;;;;;-4.84;78.07;102358.85;1585005;89;21020;-72
2022/01/11 04:28:01;;;;;;;59.40;27.67;;;;;;;-4.87;78.10;102357.40;1613722;89;21080;-72
2022/01/11 04:30:29;;;;;;;57.73;28.57;;;;;;;-4.87;77.99;102361.23;1613648;89;21473;-72
2022/01/11 04:32:56;;;;;;;55.70;27.67;;;;;;;-4.91;78.11;102362.24;1613682;89;21460;-72
2022/01/11 04:35:23;;;;;;;56.83;28.13;;;;;;;-4.90;78.06;102358.51;1613849;89;21913;-72
2022/01/11 04:37:52;;;;;;;52.63;26.90;;;;;;;-4.93;78.18;102357.06;1613782;89;21123;-72
2022/01/11 04:40:19;;;;;;;53.60;26.43;;;;;;;-4.89;78.16;102352.59;1613965;89;21096;-72
2022/01/11 04:42:47;;;;;;;56.23;26.23;;;;;;;-4.95;78.02;102358.64;1613484;89;21070;-72
2022/01/11 04:45:15;;;;;;;51.83;24.97;;;;;;;-4.97;77.95;102357.66;1613679;89;21086;-72
2022/01/11 04:47:47;;;;;;;54.10;25.47;;;;;;;-5.02;77.96;102354.83;1613652;89;21040;-72
2022/01/11 04:50:14;;;;;;;57.77;27.00;;;;;;;-5.04;77.85;102361.55;1613652;89;21107;-72
2022/01/11 04:52:41;;;;;;;55.07;26.47;;;;;;;-5.09;77.83;102365.91;1613652;88;21104;-72
2022/01/11 04:55:11;;;;;;;54.83;25.87;;;;;;;-5.11;77.79;102367.09;1613485;89;20958;-72
2022/01/11 04:57:38;;;;;;;58.90;26.27;;;;;;;-5.14;77.95;102370.75;1599153;89;21108;-72
2022/01/11 05:00:07;;;;;;;52.90;25.50;;;;;;;-5.12;78.02;102373.00;1612338;88;21015;-72
2022/01/11 05:02:36;;;;;;;49.30;25.07;;;;;;;-5.17;78.01;102380.40;1613629;89;21610;-72
2022/01/11 05:05:04;;;;;;;52.60;24.47;;;;;;;-5.16;77.94;102381.27;1613353;88;22303;-71
2022/01/11 05:07:33;;;;;;;54.10;23.93;;;;;;;-5.20;77.94;102381.91;1627695;87;21096;-72
2022/01/11 05:10:00;;;;;;;50.93;26.00;;;;;;;-5.21;77.84;102381.39;1613502;88;21079;-73
2022/01/11 05:12:27;;;;;;;56.07;26.07;;;;;;;-5.24;77.98;102386.33;1613810;89;21012;-72
2022/01/11 05:14:54;;;;;;;49.97;25.00;;;;;;;-5.23;77.95;102385.56;1636696;87;21046;-72
2022/01/11 05:17:23;;;;;;;51.97;24.07;;;;;;;-5.26;77.97;102381.14;1640445;86;21858;-72
2022/01/11 05:19:50;;;;;;;55.73;26.53;;;;;;;-5.24;78.00;102379.94;1639825;87;21098;-72
2022/01/11 05:22:18;;;;;;;55.73;23.77;;;;;;;-5.30;77.86;102384.30;1639897;87;21560;-73
2022/01/11 05:24:45;;;;;;;59.00;25.50;;;;;;;-5.30;77.94;102393.24;1640151;87;20990;-74
2022/01/11 05:27:14;;;;;;;51.03;23.90;;;;;;;-5.32;78.07;102394.84;1639974;87;21094;-72
2022/01/11 05:29:40;;;;;;;50.13;24.43;;;;;;;-5.30;77.97;102402.19;1640097;87;21139;-71
2022/01/11 05:32:08;;;;;;;52.37;24.47;;;;;;;-5.33;77.96;102407.13;1639910;87;21288;-75
2022/01/11 05:34:35;;;;;;;45.57;23.73;;;;;;;-5.35;77.89;102407.41;1640152;87;21011;-72
2022/01/11 05:37:03;;;;;;;52.27;24.77;;;;;;;-5.37;78.00;102411.58;1639834;87;21078;-72
2022/01/11 05:39:31;;;;;;;61.37;25.43;;;;;;;-5.35;77.92;102420.20;1640169;87;21528;-72
2022/01/11 05:41:59;;;;;;;48.50;22.80;;;;;;;-5.40;77.99;102422.50;1639848;87;21559;-72
2022/01/11 05:44:26;;;;;;;56.47;25.83;;;;;;;-5.38;77.97;102434.07;1640101;87;21510;-73
2022/01/11 05:46:53;;;;;;;51.63;24.17;;;;;;;-5.43;77.91;102432.54;1640143;86;21039;-72
2022/01/11 05:49:20;;;;;;;56.83;24.73;;;;;;;-5.44;77.75;102440.09;1639572;87;21043;-73
2022/01/11 05:51:47;;;;;;;53.27;23.57;;;;;;;-5.48;77.79;102443.27;1613947;89;21365;-77
2022/01/11 05:54:14;;;;;;;59.30;27.60;;;;;;;-5.48;77.73;102433.05;1608663;89;21192;-74
2022/01/11 05:56:41;;;;;;;49.23;25.03;;;;;;;-5.51;77.92;102441.81;1631201;87;21016;-71
2022/01/11 05:59:08;;;;;;;56.90;26.57;;;;;;;-5.49;77.80;102443.64;1630275;88;21070;-71
2022/01/11 06:01:36;;;;;;;60.53;25.80;;;;;;;-5.54;77.86;102446.70;1631596;88;21051;-74
2022/01/11 06:04:04;;;;;;;61.17;27.43;;;;;;;-5.55;77.82;102442.00;1631529;88;21075;-72
2022/01/11 06:06:31;;;;;;;57.67;26.23;;;;;;;-5.57;77.84;102446.16;1631631;88;21136;-70
2022/01/11 06:09:01;;;;;;;68.93;29.77;;;;;;;-5.56;77.83;102440.24;1631248;88;21020;-70
2022/01/11 06:11:29;;;;;;;54.50;26.43;;;;;;;-5.57;77.90;102450.35;1631337;88;21060;-76
2022/01/11 06:13:56;;;;;;;61.70;28.07;;;;;;;-5.55;77.97;102450.94;1631457;88;21067;-72
2022/01/11 06:16:24;;;;;;;62.77;27.17;;;;;;;-5.57;77.90;102455.09;1631433;88;21288;-71
2022/01/11 06:18:52;;;;;;;63.70;28.27;;;;;;;-5.57;77.95;102457.65;1631672;88;21203;-74
2022/01/11 06:21:21;;;;;;;53.80;25.73;;;;;;;-5.60;77.93;102458.71;1630266;88;21016;-79
2022/01/11 06:23:49;;;;;;;59.57;29.00;;;;;;;-5.61;77.84;102455.28;1631356;88;21123;-74
2022/01/11 06:26:17;;;;;;;58.60;27.17;;;;;;;-5.65;77.81;102452.46;1631593;88;20956;-74
2022/01/11 06:28:45;;;;;;;66.40;29.47;;;;;;;-5.64;77.77;102458.92;1631414;88;21500;-73
2022/01/11 06:31:12;;;;;;;59.10;27.73;;;;;;;-5.67;77.92;102467.68;1631660;88;21188;-72
2022/01/11 06:33:39;;;;;;;61.37;27.97;;;;;;;-5.64;77.81;102472.97;1631534;88;21017;-75
2022/01/11 06:36:10;;;;;;;67.33;27.57;;;;;;;-5.70;77.79;102478.98;1631653;86;21063;-73
2022/01/11 06:38:40;;;;;;;60.70;28.93;;;;;;;-5.70;77.75;102480.66;1629082;88;21075;-72
2022/01/11 06:41:07;;;;;;;57.83;26.43;;;;;;;-5.73;77.82;102481.36;1653529;86;21040;-73
2022/01/11 06:43:37;;;;;;;86.37;37.50;;;;;;;-5.72;77.84;102491.17;1630375;87;21174;-73
2022/01/11 06:46:05;;;;;;;85.53;36.40;;;;;;;-5.71;78.17;102490.01;1628461;87;21038;-74
2022/01/11 06:48:34;;;;;;;83.77;34.37;;;;;;;-5.64;78.38;102494.69;1639979;87;21016;-73
2022/01/11 06:51:01;;;;;;;79.77;35.13;;;;;;;-5.61;78.63;102496.16;1631678;87;21063;-72
2022/01/11 06:53:31;;;;;;;132.80;49.13;;;;;;;-5.55;78.59;102498.20;1620947;87;21146;-72
2022/01/11 06:55:58;;;;;;;128.77;49.73;;;;;;;-5.50;78.86;102506.17;1627155;87;21134;-72
2022/01/11 06:58:28;;;;;;;100.50;42.03;;;;;;;-5.42;79.01;102510.95;1625965;87;21043;-74
2022/01/11 07:00:56;;;;;;;81.83;36.47;;;;;;;-5.39;79.24;102509.87;1634616;87;21032;-72
2022/01/11 07:03:23;;;;;;;88.03;36.90;;;;;;;-5.32;79.24;102513.70;1631617;87;21056;-73
2022/01/11 07:05:51;;;;;;;82.00;35.13;;;;;;;-5.30;79.23;102513.78;1581556;88;21064;-72
2022/01/11 07:08:19;;;;;;;74.60;32.90;;;;;;;-5.26;79.09;102512.80;1631595;88;21173;-72
2022/01/11 07:10:46;;;;;;;92.47;39.40;;;;;;;-5.24;79.19;102511.59;1631655;88;21052;-74
2022/01/11 07:13:13;;;;;;;79.97;35.57;;;;;;;-5.21;79.07;102513.96;1631576;88;21066;-73
2022/01/11 07:15:41;;;;;;;76.80;33.63;;;;;;;-5.21;79.15;102511.41;1631744;88;21478;-74
2022/01/11 07:18:10;;;;;;;70.63;33.60;;;;;;;-5.19;79.01;102514.91;1631712;88;21053;-73
2022/01/11 07:20:42;;;;;;;70.63;32.73;;;;;;;-5.22;78.97;102517.69;1631722;88;21269;-73
2022/01/11 07:23:09;;;;;;;73.15;32.78;;;;;;;-5.22;78.86;102524.95;1631522;88;21516;-73
2022/01/11 07:25:37;;;;;;;71.87;33.03;;;;;;;-5.24;79.01;102523.09;1631539;88;21095;-74
2022/01/11 07:28:06;;;;;;;79.57;33.20;;;;;;;-5.22;78.80;102522.80;1642195;86;21536;-74
2022/01/11 07:30:34;;;;;;;111.57;45.87;;;;;;;-5.24;78.95;102520.54;1626748;86;21070;-74
2022/01/11 07:33:01;;;;;;;100.30;43.20;;;;;;;-5.24;78.94;102519.26;1613047;89;21220;-73
2022/01/11 07:35:29;;;;;;;113.13;44.13;;;;;;;-5.24;78.83;102529.12;1626448;87;21026;-74
2022/01/11 07:37:56;;;;;;;94.57;41.07;;;;;;;-5.27;78.85;102530.58;1586914;90;21077;-74
2022/01/11 07:40:23;;;;;;;82.93;37.77;;;;;;;-5.24;78.89;102532.05;1613258;88;21034;-73
2022/01/11 07:42:51;;;;;;;82.13;38.37;;;;;;;-5.26;78.98;102528.13;1586711;90;21146;-73
2022/01/11 07:45:36;;;;;;;76.50;37.60;;;;;;;-5.23;79.06;102532.16;1603990;89;21360;-73
2022/01/11 07:48:05;;;;;;;84.03;39.23;;;;;;;-5.21;79.20;102539.53;1632654;86;20932;-72
2022/01/11 07:50:34;;;;;;;83.93;38.50;;;;;;;-5.14;79.22;102550.12;1615038;87;21072;-73
2022/01/11 07:53:05;;;;;;;135.13;51.67;;;;;;;-5.14;79.30;102548.44;1600174;88;21058;-71
2022/01/11 07:55:33;;;;;;;;;;;;;;;-5.11;79.26;102552.46;1615603;88;21619;-71
2022/01/11 07:58:00;;;;;;;196.03;68.93;;;;;;;-5.09;79.43;102544.90;1613185;89;21153;-72
2022/01/11 08:00:28;;;;;;;168.30;59.33;;;;;;;-5.08;79.55;102550.09;1613463;88;21596;-72
2022/01/11 08:02:55;;;;;;;196.13;68.37;;;;;;;-5.03;79.70;102558.05;1608211;88;21094;-71
2022/01/11 08:05:33;;;;;;;283.23;97.30;;;;;;;-4.95;79.78;102558.13;1595500;89;21068;-73
2022/01/11 08:08:00;;;;;;;303.60;98.27;;;;;;;-4.90;79.88;102563.13;1613253;89;21577;-73
2022/01/11 08:10:29;;;;;;;185.00;65.17;;;;;;;-4.81;79.96;102563.67;1619803;87;21227;-73
2022/01/11 08:12:58;;;;;;;174.73;62.80;;;;;;;-4.76;80.03;102561.40;1632496;87;21066;-73
2022/01/11 08:15:25;;;;;;;158.87;62.27;;;;;;;-4.71;80.11;102562.56;1615113;87;21008;-73
2022/01/11 08:17:53;;;;;;;135.27;53.70;;;;;;;-4.63;80.09;102569.39;1613916;89;21063;-73
2022/01/11 08:20:21;;;;;;;137.43;52.40;;;;;;;-4.56;80.03;102578.81;1613557;88;21098;-73
2022/01/11 08:22:48;;;;;;;171.83;65.40;;;;;;;-4.54;80.12;102564.84;1613323;87;21134;-73
2022/01/11 08:25:15;;;;;;;170.33;63.40;;;;;;;-4.47;80.08;102561.83;1621822;87;21483;-73
2022/01/11 08:27:42;;;;;;;110.07;46.17;;;;;;;-4.44;80.07;102558.57;1658590;86;21532;-73
2022/01/11 08:30:10;;;;;;;110.10;46.53;;;;;;;-4.36;80.12;102558.63;1636896;86;21055;-73
2022/01/11 08:32:39;;;;;;;93.67;41.92;;;;;;;-4.29;80.22;102556.92;1630304;88;21088;-73
2022/01/11 08:35:08;;;;;;;89.87;41.03;;;;;;;-4.22;80.28;102566.70;1623755;88;21146;-73
2022/01/11 08:37:36;;;;;;;91.93;40.93;;;;;;;-4.16;80.36;102562.33;1613408;89;21074;-73
2022/01/11 08:40:04;;;;;;;101.43;44.67;;;;;;;-4.08;80.27;102565.81;1613858;89;21079;-72
2022/01/11 08:42:32;;;;;;;85.43;39.03;;;;;;;-4.05;80.33;102567.30;1626108;87;21050;-72
2022/01/11 08:45:00;;;;;;;159.70;65.97;;;;;;;-3.96;80.34;102564.38;1637773;87;21083;-74
2022/01/11 08:47:32;;;;;;;180.63;74.57;;;;;;;-3.91;80.43;102562.93;1585902;89;21571;-72
2022/01/11 08:50:02;;;;;;;96.65;43.92;;;;;;;-3.83;80.38;102558.24;1613844;89;21524;-72
2022/01/11 08:52:31;;;;;;;95.90;44.73;;;;;;;-3.82;80.28;102557.06;1614007;87;21536;-74
2022/01/11 08:54:58;;;;;;;96.33;43.43;;;;;;;-3.74;80.33;102558.78;1613855;88;21055;-74
2022/01/11 08:57:26;;;;;;;110.23;47.67;;;;;;;-3.69;80.34;102562.45;1613814;89;21579;-76
2022/01/11 08:59:54;;;;;;;106.20;48.93;;;;;;;-3.62;80.34;102564.58;1616512;86;21267;-82
2022/01/11 09:02:22;;;;;;;123.70;53.47;;;;;;;-3.51;80.57;102573.27;1614099;87;21107;-72
2022/01/11 09:04:53;;;;;;;86.73;41.07;;;;;;;-3.39;80.43;102572.23;1621024;87;21059;-79
2022/01/11 09:07:22;;;;;;;103.70;47.03;;;;;;;-3.33;80.41;102574.25;1612983;87;21471;-84
2022/01/11 09:09:51;;;;;;;108.00;51.17;;;;;;;-3.26;80.04;102575.08;1613833;87;21023;-74
2022/01/11 09:12:19;;;;;;;99.40;45.37;;;;;;;-3.23;80.12;102576.94;1614628;87;21141;-74
2022/01/11 09:14:49;;;;;;;115.93;52.43;;;;;;;-3.14;80.17;102577.02;1613662;89;21531;-72
2022/01/11 09:17:17;;;;;;;121.80;55.07;;;;;;;-3.04;80.27;102574.96;1613810;88;21066;-73
2022/01/11 09:19:44;;;;;;;115.70;55.60;;;;;;;-2.93;80.16;102573.84;1613474;89;21554;-72
2022/01/11 09:22:13;;;;;;;94.37;45.20;;;;;;;-2.87;80.10;102574.56;1613920;88;21086;-72
2022/01/11 09:24:40;;;;;;;106.30;49.53;;;;;;;-2.76;80.03;102581.14;1614092;88;21161;-72
2022/01/11 09:27:08;;;;;;;89.80;44.30;;;;;;;-2.68;80.12;102580.27;1615465;87;21531;-72
2022/01/11 09:29:37;;;;;;;116.80;55.93;;;;;;;-2.55;79.99;102573.66;1626555;87;21071;-72
2022/01/11 09:32:07;;;;;;;162.33;77.07;;;;;;;-2.49;79.94;102577.44;1604379;87;21118;-73
2022/01/11 09:34:38;;;;;;;103.62;48.42;;;;;;;-2.39;79.87;102575.33;1610067;88;21089;-71
2022/01/11 09:37:08;;;;;;;112.85;54.35;;;;;;;-2.26;79.94;102580.28;1613846;88;21187;-71
2022/01/11 09:39:36;;;;;;;182.53;82.80;;;;;;;-2.18;79.60;102581.55;1613431;88;20979;-72
2022/01/11 09:42:06;;;;;;;120.37;54.15;;;;;;;-2.11;79.47;102572.45;1614177;87;21492;-72
2022/01/11 09:44:38;;;;;;;130.12;60.15;;;;;;;-2.00;79.72;102573.86;1613108;88;21054;-71
2022/01/11 09:47:11;;;;;;;120.90;53.65;;;;;;;-1.88;79.76;102576.17;1624171;87;21047;-72
2022/01/11 09:49:40;;;;;;;99.70;46.27;;;;;;;-1.79;79.48;102577.89;1619622;87;21233;-73
2022/01/11 09:52:11;;;;;;;98.47;46.93;;;;;;;-1.68;79.44;102579.28;1611799;87;21017;-75
2022/01/11 09:54:43;;;;;;;113.03;52.95;;;;;;;-1.59;79.44;102582.28;1605886;88;21062;-71
2022/01/11 09:57:12;;;;;;;97.83;47.33;;;;;;;-1.49;79.12;102578.48;1612051;87;21030;-73
2022/01/11 09:59:41;;;;;;;110.90;54.80;;;;;;;-1.43;79.11;102583.02;1607799;89;21075;-72
2022/01/11 10:02:27;;;;;;;94.57;46.67;;;;;;;-1.35;79.05;102586.84;1611460;87;21577;-72
2022/01/11 10:05:02;;;;;;;90.77;45.97;;;;;;;-1.25;78.91;102589.01;1603993;87;21174;-72
2022/01/11 10:07:43;;;;;;;93.57;46.37;;;;;;;-1.13;79.14;102584.86;1587015;88;21080;-72
2022/01/11 10:10:15;;;;;;;87.77;44.63;;;;;;;-0.98;79.09;102588.52;1613367;88;21111;-72
2022/01/11 10:12:50;;;;;;;85.83;45.60;;;;;;;-0.84;79.04;102587.86;1617974;87;21114;-73
2022/01/11 10:15:33;;;;;;;87.70;44.43;;;;;;;-0.71;78.93;102588.47;1612879;88;21185;-73
2022/01/11 10:18:03;;;;;;;87.90;45.40;;;;;;;-0.55;78.82;102591.73;1613477;89;21038;-72
2022/01/11 10:20:31;;;;;;;90.50;45.70;;;;;;;-0.50;78.54;102592.41;1586462;90;21057;-74
2022/01/11 10:23:08;;;;;;;79.13;42.97;;;;;;;-0.41;78.40;102591.05;1584549;87;21080;-73
2022/01/11 10:25:47;;;;;;;82.93;43.73;;;;;;;-0.33;78.38;102593.13;1613117;89;21026;-73
2022/01/11 10:28:15;;;;;;;101.20;48.23;;;;;;;-0.19;78.17;102590.23;1617615;87;21937;-74
2022/01/11 10:30:44;;;;;;;84.27;43.67;;;;;;;-0.12;78.04;102593.55;1613315;87;21092;-74
2022/01/11 10:33:11;;;;;;;92.03;47.17;;;;;;;-0.03;77.88;102595.21;1618111;87;21046;-74
2022/01/11 10:35:44;;;;;;;86.13;43.37;;;;;;;0.04;77.86;102597.23;1622117;87;21459;-74
2022/01/11 10:38:32;;;;;;;81.93;44.17;;;;;;;0.24;77.93;102598.47;1603520;88;21055;-75
2022/01/11 10:41:04;;;;;;;82.10;42.40;;;;;;;0.34;77.60;102591.58;1613593;87;21189;-74
2022/01/11 10:43:37;;;;;;;80.77;42.93;;;;;;;0.46;77.55;102596.34;1626856;87;20991;-74
2022/01/11 10:46:04;;;;;;;82.87;42.03;;;;;;;0.58;77.36;102605.45;1605305;87;21075;-74
2022/01/11 10:48:39;;;;;;;75.07;40.20;;;;;;;0.71;77.45;102609.79;1618011;87;21014;-74
2022/01/11 10:51:11;;;;;;;79.80;41.50;;;;;;;0.86;77.33;102612.56;1617788;87;21057;-75
2022/01/11 10:53:38;;;;;;;76.30;40.90;;;;;;;0.97;77.04;102609.48;1615519;87;21162;-75
2022/01/11 10:56:08;;;;;;;77.77;40.97;;;;;;;1.12;76.86;102612.66;1625039;87;21598;-74
2022/01/11 10:58:37;;;;;;;72.77;39.10;;;;;;;1.19;76.47;102604.71;1612160;88;21028;-77
2022/01/11 11:01:11;;;;;;;82.40;42.43;;;;;;;1.29;76.33;102601.64;1615707;87;21046;-77
2022/01/11 11:03:39;;;;;;;75.27;40.93;;;;;;;1.40;76.26;102590.41;1612889;88;21071;-75
2022/01/11 11:06:11;;;;;;;77.07;40.73;;;;;;;1.49;75.97;102588.14;1611917;88;22712;-72
2022/01/11 11:08:47;;;;;;;75.73;41.73;;;;;;;1.55;75.64;102584.47;1616364;87;21498;-75
2022/01/11 11:11:21;;;;;;;78.83;42.67;;;;;;;1.60;75.57;102584.23;1613700;87;21090;-76
2022/01/11 11:13:51;;;;;;;83.70;42.80;;;;;;;1.74;75.62;102588.58;1613234;88;21533;-75
2022/01/11 11:16:30;;;;;;;82.43;42.47;;;;;;;1.85;75.30;102584.66;1603135;87;21110;-74
2022/01/11 11:19:00;;;;;;;;;;;;;;;1.90;75.16;102586.11;1615318;87;21218;-76
2022/01/11 11:21:38;;;;;;;80.97;43.03;;;;;;;2.06;74.81;102587.09;1604126;87;20462;-76
2022/01/11 11:24:14;;;;;;;84.37;43.10;;;;;;;2.09;74.73;102583.31;1619374;86;21080;-74